Airfield :
LOGIN :

Register | Disclaimer

   EN    FR    IT 

 










Legend :    VFR   Marginal VFR   IFR   Intensive IFR   Very Intensive IFR
Visi :
Ceiling :
>= 8 km
>= 3000ft
5 to 8 km
1000 to 3000 ft
1500m to 5 km
500 to 1000 ft
800 to 1500m
200 to 500 ft
< 800m
< 200 ft
Symbols :   Thunderstorms  Fog  Heavy snow  Heavy precipitations  Wind > 20 kt
SIGMETs :     Misc.  Thunderstorms  Icing  Turbulence  Mountain Waves  Volcanic Ashes







- Airport Elevation : 481 ft
- IATA code : DNK


UKDD - Dnipropetrovs'k

CURRENT METAR :
  • 200030Z 07005MPS CAVOK 14/08 Q1015 R08/090070 NOSIG

EXPIRED METARs :
  • 200000Z 07005MPS CAVOK 14/08 Q1015 R08/090070 NOSIG
  • 192330Z 07005MPS CAVOK 14/08 Q1015 R08/090070 NOSIG
  • 192300Z 06005MPS CAVOK 15/08 Q1015 R08/090070 NOSIG
  • 192230Z 05005MPS CAVOK 15/08 Q1015 R08/090070 NOSIG
  • 192200Z 06005MPS CAVOK 15/09 Q1015 R08/090070 NOSIG

TAF TAF UKDD
Valid from the 20 at 00:00 until the 21 at 00:00 UTC


192303Z 2000/2024 07006MPS CAVOK TX27/2012Z TN14/2002Z
BECMG 2004/2006 10007G12MPS
UKDV FIR / Europe



MET'MAP, your aeronautical weather chart ! - Copyright ORBIFLY December 2007 - Disclaimer

ORBIFLY MET'MAP TEAM :

Programming & Development : Alexandra Zaïnal
Concept & Development : Baudouin d'Aumeries
Co-Development & Prog : Marc-Olivier Méhu
Technical & hardware support : Manuel Goepfert

Contact : metmap@orbifly.com




SOURCES & CREDITS :

   NOAA